Time;durP1;ratioP1;P1;durP2;ratioP2;P2;SDS_P1;SDS_P2;PMS_P1;PMS_P2;Temp;Humidity;BMP_temperature;BMP_pressure;BME280_temperature;BME280_humidity;BME280_pressure;Samples;Min_cycle;Max_cycle;Signal;HPM_P1;HPM_P2
2023/11/02 00:01:18;;;;;;;6.57;3.70;;;;;;;;;;5013445;28;20037;-57
2023/11/02 00:03:43;;;;;;;4.55;3.97;;;;;;;;;;5013224;28;20087;-57
2023/11/02 00:06:18;;;;;;;4.18;3.80;;;;;;;;;;5013382;28;20128;-57
2023/11/02 00:08:49;;;;;;;3.92;3.53;;;;;;;;;;5013242;28;20108;-57
2023/11/02 00:11:33;;;;;;;5.15;4.05;;;;;;;;;;5012536;28;20034;-57
2023/11/02 00:13:58;;;;;;;5.43;3.47;;;;;;;;;;4995581;28;20794;-57
2023/11/02 00:16:24;;;;;;;4.00;3.10;;;;;;;;;;5012645;28;20022;-57
2023/11/02 00:18:49;;;;;;;3.42;3.13;;;;;;;;;;5011759;28;20534;-57
2023/11/02 00:21:20;;;;;;;5.57;3.72;;;;;;;;;;4979597;28;20439;-57
2023/11/02 00:23:47;;;;;;;5.93;3.70;;;;;;;;;;5012470;28;20481;-57
2023/11/02 00:26:18;;;;;;;5.65;3.42;;;;;;;;;;5012412;28;20033;-57
2023/11/02 00:28:46;;;;;;;4.65;3.17;;;;;;;;;;5012827;28;20374;-57
2023/11/02 00:31:11;;;;;;;6.38;4.30;;;;;;;;;;5012633;28;20037;-57
2023/11/02 00:33:37;;;;;;;6.22;4.35;;;;;;;;;;4994922;28;20077;-57
2023/11/02 00:36:03;;;;;;;7.70;4.65;;;;;;;;;;5012506;28;20034;-60
2023/11/02 00:38:28;;;;;;;6.93;4.72;;;;;;;;;;4994738;28;20045;-57
2023/11/02 00:40:54;;;;;;;4.65;3.72;;;;;;;;;;5012559;28;20041;-57
2023/11/02 00:43:21;;;;;;;7.45;4.45;;;;;;;;;;5012452;28;20029;-59
2023/11/02 00:45:47;;;;;;;6.60;4.22;;;;;;;;;;4994780;28;20540;-57
2023/11/02 00:48:22;;;;;;;3.72;3.30;;;;;;;;;;4994336;28;20172;-59
2023/11/02 00:51:07;;;;;;;4.85;3.63;;;;;;;;;;4994523;28;20038;-58
2023/11/02 00:53:33;;;;;;;4.88;3.42;;;;;;;;;;4994205;28;20033;-59
2023/11/02 00:55:58;;;;;;;4.63;3.55;;;;;;;;;;5012485;28;20018;-61
2023/11/02 00:58:28;;;;;;;6.15;3.22;;;;;;;;;;4994068;28;20034;-60
2023/11/02 01:00:53;;;;;;;3.33;3.08;;;;;;;;;;5011998;28;20033;-60
2023/11/02 01:03:19;;;;;;;4.55;3.42;;;;;;;;;;5012350;28;20477;-60
2023/11/02 01:05:44;;;;;;;3.65;3.35;;;;;;;;;;5012277;28;20041;-60
2023/11/02 01:08:13;;;;;;;3.83;3.45;;;;;;;;;;4993871;28;20041;-59
2023/11/02 01:10:39;;;;;;;4.70;3.50;;;;;;;;;;4994254;28;20053;-59
2023/11/02 01:13:10;;;;;;;4.45;3.60;;;;;;;;;;4994070;28;20539;-59
2023/11/02 01:15:42;;;;;;;5.15;3.13;;;;;;;;;;5011119;28;20026;-60
2023/11/02 01:18:08;;;;;;;4.03;3.50;;;;;;;;;;5011301;28;20037;-60
2023/11/02 01:20:43;;;;;;;5.40;3.25;;;;;;;;;;4994053;28;20025;-60
2023/11/02 01:23:15;;;;;;;4.45;3.35;;;;;;;;;;4977859;28;20393;-60
2023/11/02 01:25:41;;;;;;;5.57;3.45;;;;;;;;;;4994275;28;20161;-60
2023/11/02 01:28:07;;;;;;;4.32;3.63;;;;;;;;;;5011603;28;20075;-60
2023/11/02 01:30:36;;;;;;;4.70;3.10;;;;;;;;;;4993821;28;20029;-60
2023/11/02 01:33:07;;;;;;;4.55;3.60;;;;;;;;;;5011886;28;20129;-60
2023/11/02 01:35:36;;;;;;;3.75;3.30;;;;;;;;;;5011692;28;20042;-60
2023/11/02 01:38:01;;;;;;;3.70;3.10;;;;;;;;;;5011281;28;20049;-60
2023/11/02 01:40:34;;;;;;;3.35;3.05;;;;;;;;;;4993633;28;20025;-60
2023/11/02 01:43:02;;;;;;;3.22;3.00;;;;;;;;;;4993900;28;20041;-60
2023/11/02 01:45:30;;;;;;;4.70;2.97;;;;;;;;;;5011800;28;20091;-60
2023/11/02 01:48:15;;;;;;;3.42;3.13;;;;;;;;;;5012442;28;20064;-60
2023/11/02 01:50:43;;;;;;;5.40;2.95;;;;;;;;;;5011819;28;20052;-60
2023/11/02 01:53:31;;;;;;;3.97;3.20;;;;;;;;;;4993686;28;20663;-59
2023/11/02 01:56:11;;;;;;;4.53;2.80;;;;;;;;;;5011637;28;20450;-59
2023/11/02 01:58:37;;;;;;;3.30;3.00;;;;;;;;;;4993676;28;20033;-61
2023/11/02 02:01:05;;;;;;;3.45;3.08;;;;;;;;;;4994092;28;20108;-61
2023/11/02 02:03:37;;;;;;;3.75;3.15;;;;;;;;;;4993303;28;20042;-61
2023/11/02 02:06:26;;;;;;;2.95;2.63;;;;;;;;;;5010824;28;20037;-61
2023/11/02 02:09:09;;;;;;;3.03;2.75;;;;;;;;;;5000190;28;20046;-61
2023/11/02 02:11:34;;;;;;;3.05;2.80;;;;;;;;;;5011650;28;20107;-61
2023/11/02 02:14:00;;;;;;;3.92;3.30;;;;;;;;;;4977923;28;20439;-61
2023/11/02 02:16:25;;;;;;;3.80;3.28;;;;;;;;;;4994649;28;20017;-61
2023/11/02 02:19:06;;;;;;;6.20;3.10;;;;;;;;;;4993387;28;20481;-60
2023/11/02 02:21:40;;;;;;;4.25;2.85;;;;;;;;;;4992928;28;20030;-61
2023/11/02 02:24:32;;;;;;;4.30;3.15;;;;;;;;;;5010461;28;20033;-60
2023/11/02 02:27:03;;;;;;;4.28;3.15;;;;;;;;;;5006894;28;20409;-60
2023/11/02 02:29:43;;;;;;;3.08;2.58;;;;;;;;;;5010921;28;20034;-60
2023/11/02 02:32:08;;;;;;;;;;;;;;;;;;5011058;28;20041;-60
2023/11/02 02:34:49;;;;;;;4.20;3.03;;;;;;;;;;5010705;28;19913;-61
2023/11/02 02:37:19;;;;;;;4.78;3.10;;;;;;;;;;4997118;28;20042;-60
2023/11/02 02:39:45;;;;;;;;;;;;;;;;;;5015398;28;20042;-61
2023/11/02 02:42:15;;;;;;;4.63;3.55;;;;;;;;;;4997502;28;19913;-61
2023/11/02 02:44:40;;;;;;;3.05;2.75;;;;;;;;;;5014413;28;20033;-61
2023/11/02 02:47:07;;;;;;;4.05;3.00;;;;;;;;;;5014842;28;20339;-60
2023/11/02 02:49:38;;;;;;;3.45;3.15;;;;;;;;;;5014792;28;20114;-61
2023/11/02 02:52:05;;;;;;;3.28;2.90;;;;;;;;;;5014629;28;20038;-60
2023/11/02 02:54:31;;;;;;;3.50;3.13;;;;;;;;;;4996752;28;20466;-61
2023/11/02 02:56:59;;;;;;;3.63;2.92;;;;;;;;;;5014541;28;20021;-61
2023/11/02 02:59:25;;;;;;;3.05;2.75;;;;;;;;;;4996162;28;20393;-59
2023/11/02 03:01:51;;;;;;;3.90;2.95;;;;;;;;;;5014537;28;20038;-61
2023/11/02 03:04:18;;;;;;;5.20;3.40;;;;;;;;;;5014212;28;20025;-61
2023/11/02 03:06:45;;;;;;;3.65;3.05;;;;;;;;;;5013709;28;20029;-61
2023/11/02 03:09:15;;;;;;;3.17;2.88;;;;;;;;;;5013469;28;20768;-61
2023/11/02 03:11:44;;;;;;;3.72;3.05;;;;;;;;;;5014555;28;20029;-61
2023/11/02 03:14:11;;;;;;;3.22;2.78;;;;;;;;;;5013994;28;20049;-60
2023/11/02 03:16:36;;;;;;;3.30;3.00;;;;;;;;;;4996596;28;20113;-60
2023/11/02 03:19:05;;;;;;;3.05;2.65;;;;;;;;;;5014208;28;20113;-61
2023/11/02 03:21:31;;;;;;;4.10;2.70;;;;;;;;;;5014217;28;20038;-60
2023/11/02 03:24:02;;;;;;;4.07;2.83;;;;;;;;;;5014438;28;20034;-62
2023/11/02 03:26:27;;;;;;;;;;;;;;;;;;5014646;28;20489;-61
2023/11/02 03:28:57;;;;;;;3.00;2.40;;;;;;;;;;5013889;28;19968;-61
2023/11/02 03:31:42;;;;;;;3.60;2.70;;;;;;;;;;5014053;28;20284;-61
2023/11/02 03:34:14;;;;;;;2.45;2.25;;;;;;;;;;5013157;28;20501;-60
2023/11/02 03:36:54;;;;;;;2.90;2.47;;;;;;;;;;5013041;28;20030;-60
2023/11/02 03:39:38;;;;;;;5.47;2.50;;;;;;;;;;5013636;28;20132;-60
2023/11/02 03:42:03;;;;;;;2.33;2.13;;;;;;;;;;5013924;28;20108;-60
2023/11/02 03:44:29;;;;;;;3.03;2.72;;;;;;;;;;5013442;28;20025;-60
2023/11/02 03:47:03;;;;;;;4.22;2.58;;;;;;;;;;5012333;28;20381;-62
2023/11/02 03:49:30;;;;;;;3.47;2.22;;;;;;;;;;5014038;28;20037;-59
2023/11/02 03:51:59;;;;;;;2.78;2.25;;;;;;;;;;5013918;28;20458;-60
2023/11/02 03:54:37;;;;;;;3.75;2.22;;;;;;;;;;5015183;28;20022;-60
2023/11/02 03:57:21;;;;;;;2.58;2.38;;;;;;;;;;5015581;28;20030;-60
2023/11/02 04:00:00;;;;;;;2.90;2.30;;;;;;;;;;5014365;28;20046;-60
2023/11/02 04:02:30;;;;;;;2.30;2.10;;;;;;;;;;5013937;28;20800;-59
2023/11/02 04:05:00;;;;;;;2.20;2.00;;;;;;;;;;5013334;28;20428;-59
2023/11/02 04:07:30;;;;;;;2.25;2.05;;;;;;;;;;5013100;28;20041;-59
2023/11/02 04:10:11;;;;;;;2.55;2.35;;;;;;;;;;5013368;28;20111;-59
2023/11/02 04:13:06;;;;;;;2.33;2.13;;;;;;;;;;5013161;28;20042;-61
2023/11/02 04:15:31;;;;;;;2.72;2.33;;;;;;;;;;4995473;28;20137;-61
2023/11/02 04:17:58;;;;;;;2.45;2.25;;;;;;;;;;5013548;28;20105;-60
2023/11/02 04:20:24;;;;;;;2.80;2.40;;;;;;;;;;5013069;28;20022;-59
2023/11/02 04:22:50;;;;;;;2.30;2.10;;;;;;;;;;5012755;28;20017;-59
2023/11/02 04:25:16;;;;;;;2.80;2.28;;;;;;;;;;5012944;28;20034;-59
2023/11/02 04:27:42;;;;;;;2.63;1.98;;;;;;;;;;5012839;28;20029;-60
2023/11/02 04:30:07;;;;;;;3.55;1.98;;;;;;;;;;5013178;28;20503;-59
2023/11/02 04:32:33;;;;;;;4.72;2.00;;;;;;;;;;4995680;28;20076;-59
2023/11/02 04:35:01;;;;;;;3.53;2.58;;;;;;;;;;5013220;28;20394;-59
2023/11/02 04:37:26;;;;;;;7.93;3.22;;;;;;;;;;5013108;28;20444;-59
2023/11/02 04:39:52;;;;;;;6.40;2.80;;;;;;;;;;5013103;28;20116;-59
2023/11/02 04:42:17;;;;;;;5.47;2.88;;;;;;;;;;5012584;28;20113;-58
2023/11/02 04:44:43;;;;;;;3.22;2.25;;;;;;;;;;5012871;28;20034;-58
2023/11/02 04:47:08;;;;;;;2.83;2.17;;;;;;;;;;5012790;28;20120;-59
2023/11/02 04:49:37;;;;;;;3.00;2.42;;;;;;;;;;5012431;28;20038;-59
2023/11/02 04:52:04;;;;;;;3.38;2.53;;;;;;;;;;5012008;28;20038;-59
2023/11/02 04:54:30;;;;;;;3.25;2.05;;;;;;;;;;5012140;28;20037;-59
2023/11/02 04:56:56;;;;;;;6.53;3.42;;;;;;;;;;5011774;28;20025;-60
2023/11/02 04:59:21;;;;;;;5.80;2.70;;;;;;;;;;5011352;28;20108;-59
2023/11/02 05:01:47;;;;;;;4.95;3.28;;;;;;;;;;5011261;28;20512;-59
2023/11/02 05:04:12;;;;;;;5.57;3.22;;;;;;;;;;5011959;28;20029;-59
2023/11/02 05:06:38;;;;;;;6.32;2.58;;;;;;;;;;5011925;28;20049;-59
2023/11/02 05:09:06;;;;;;;7.07;3.65;;;;;;;;;;5011887;28;20026;-59
2023/11/02 05:11:31;;;;;;;6.95;3.78;;;;;;;;;;4993781;28;20017;-59
2023/11/02 05:13:57;;;;;;;6.07;3.05;;;;;;;;;;4993551;28;20474;-58
2023/11/02 05:16:22;;;;;;;7.32;3.20;;;;;;;;;;5008725;28;20463;-59
2023/11/02 05:18:48;;;;;;;8.35;3.53;;;;;;;;;;5011820;28;20044;-58
2023/11/02 05:21:13;;;;;;;8.02;3.70;;;;;;;;;;5011925;28;20049;-60
2023/11/02 05:23:38;;;;;;;8.40;4.10;;;;;;;;;;5012022;28;20026;-58
2023/11/02 05:26:04;;;;;;;7.35;3.38;;;;;;;;;;4994094;28;20064;-59
2023/11/02 05:28:31;;;;;;;10.13;3.95;;;;;;;;;;4993809;28;20044;-59
2023/11/02 05:30:56;;;;;;;5.88;3.10;;;;;;;;;;5011599;28;20148;-59
2023/11/02 05:33:22;;;;;;;9.05;3.83;;;;;;;;;;5011044;28;20891;-59
2023/11/02 05:35:47;;;;;;;5.70;3.35;;;;;;;;;;5010714;28;20052;-59
2023/11/02 05:38:13;;;;;;;6.43;3.60;;;;;;;;;;5011554;28;20038;-58
2023/11/02 05:40:38;;;;;;;5.70;3.17;;;;;;;;;;5011022;28;20033;-59
2023/11/02 05:43:04;;;;;;;4.50;3.22;;;;;;;;;;5010813;28;20034;-58
2023/11/02 05:45:29;;;;;;;4.53;3.10;;;;;;;;;;5011611;28;20034;-58
2023/11/02 05:47:54;;;;;;;3.88;3.08;;;;;;;;;;5011572;28;20038;-58
2023/11/02 05:50:20;;;;;;;5.18;3.38;;;;;;;;;;5010932;28;20025;-58
2023/11/02 05:52:45;;;;;;;4.38;3.10;;;;;;;;;;5011261;28;20032;-58
2023/11/02 05:55:11;;;;;;;7.95;3.95;;;;;;;;;;5011394;28;20517;-58
2023/11/02 05:57:36;;;;;;;6.45;3.47;;;;;;;;;;5010940;28;20022;-58
2023/11/02 06:00:07;;;;;;;8.43;4.22;;;;;;;;;;5011239;28;20116;-58
2023/11/02 06:02:32;;;;;;;8.65;4.10;;;;;;;;;;5011635;28;20073;-58
2023/11/02 06:04:58;;;;;;;10.50;4.72;;;;;;;;;;5011405;28;20112;-58
2023/11/02 06:07:23;;;;;;;16.15;5.95;;;;;;;;;;5011476;28;20030;-59
2023/11/02 06:09:48;;;;;;;11.68;6.30;;;;;;;;;;5010955;28;20049;-59
2023/11/02 06:12:14;;;;;;;16.75;6.97;;;;;;;;;;5015241;28;20038;-59
2023/11/02 06:14:39;;;;;;;13.90;6.30;;;;;;;;;;5014304;28;20034;-59
2023/11/02 06:17:05;;;;;;;9.50;4.20;;;;;;;;;;4980936;28;20037;-59
2023/11/02 06:19:31;;;;;;;11.90;5.45;;;;;;;;;;4996551;28;20108;-59
2023/11/02 06:21:56;;;;;;;9.52;5.03;;;;;;;;;;5014641;28;20088;-58
2023/11/02 06:24:21;;;;;;;8.63;5.28;;;;;;;;;;5013370;28;20061;-59
2023/11/02 06:26:47;;;;;;;10.80;6.05;;;;;;;;;;5013919;28;20128;-59
2023/11/02 06:29:12;;;;;;;9.00;5.22;;;;;;;;;;5013658;28;20045;-57
2023/11/02 06:31:38;;;;;;;4.25;3.35;;;;;;;;;;4996490;28;20048;-59
2023/11/02 06:34:03;;;;;;;4.20;3.80;;;;;;;;;;5014098;28;20030;-60
2023/11/02 06:36:30;;;;;;;5.55;4.47;;;;;;;;;;5014048;28;20046;-57
2023/11/02 06:38:56;;;;;;;4.50;3.40;;;;;;;;;;4995977;28;20088;-60
2023/11/02 06:41:21;;;;;;;4.00;2.95;;;;;;;;;;5014623;28;20112;-57
2023/11/02 06:43:49;;;;;;;3.80;3.50;;;;;;;;;;5014889;28;20124;-59
2023/11/02 06:46:14;;;;;;;24.45;11.70;;;;;;;;;;5014436;28;20049;-59
2023/11/02 06:48:39;;;;;;;63.45;26.10;;;;;;;;;;5011655;28;20033;-60
2023/11/02 06:51:05;;;;;;;42.15;17.98;;;;;;;;;;5011713;28;20535;-59
2023/11/02 06:53:30;;;;;;;23.45;11.18;;;;;;;;;;5011803;28;20042;-59
2023/11/02 06:55:56;;;;;;;18.58;8.85;;;;;;;;;;5013334;28;20080;-59
2023/11/02 06:58:21;;;;;;;20.20;8.50;;;;;;;;;;5013303;28;20079;-59
2023/11/02 07:00:47;;;;;;;14.73;6.97;;;;;;;;;;5012709;28;20038;-59
2023/11/02 07:03:12;;;;;;;13.02;5.95;;;;;;;;;;5013141;28;20046;-59
2023/11/02 07:05:38;;;;;;;7.90;4.10;;;;;;;;;;5013734;28;20038;-60
2023/11/02 07:08:04;;;;;;;7.55;3.85;;;;;;;;;;5013852;28;20026;-59
2023/11/02 07:10:31;;;;;;;5.10;3.30;;;;;;;;;;5014124;28;20030;-59
2023/11/02 07:12:56;;;;;;;4.70;3.30;;;;;;;;;;5013638;28;20036;-60
2023/11/02 07:15:23;;;;;;;4.45;3.10;;;;;;;;;;5013695;28;20125;-59
2023/11/02 07:17:49;;;;;;;3.40;2.75;;;;;;;;;;5013706;28;20432;-59
2023/11/02 07:20:14;;;;;;;8.68;5.88;;;;;;;;;;5013416;28;20038;-59
2023/11/02 07:22:40;;;;;;;61.80;34.08;;;;;;;;;;4995696;28;20040;-59
2023/11/02 07:25:06;;;;;;;138.82;74.47;;;;;;;;;;5013609;28;20104;-59
2023/11/02 07:27:32;;;;;;;27.02;17.13;;;;;;;;;;4995576;28;20096;-60
2023/11/02 07:29:57;;;;;;;6.72;4.63;;;;;;;;;;5013010;28;20038;-59
2023/11/02 07:32:23;;;;;;;4.63;3.63;;;;;;;;;;5013490;28;20036;-59
2023/11/02 07:34:48;;;;;;;9.85;5.78;;;;;;;;;;5013236;28;21051;-59
2023/11/02 07:37:13;;;;;;;10.10;6.00;;;;;;;;;;5013178;28;20038;-59
2023/11/02 07:39:39;;;;;;;29.02;16.23;;;;;;;;;;5013195;28;20034;-59
2023/11/02 07:42:04;;;;;;;43.53;26.52;;;;;;;;;;5012998;28;20033;-59
2023/11/02 07:44:31;;;;;;;19.38;13.32;;;;;;;;;;4994984;28;20034;-59
2023/11/02 07:46:57;;;;;;;12.00;10.63;;;;;;;;;;5012872;28;20361;-60
2023/11/02 07:49:22;;;;;;;7.50;6.72;;;;;;;;;;5012189;28;20128;-59
2023/11/02 07:51:47;;;;;;;4.53;4.13;;;;;;;;;;5012854;28;20721;-59
2023/11/02 07:54:13;;;;;;;5.03;4.40;;;;;;;;;;4995098;28;20038;-59
2023/11/02 07:56:38;;;;;;;3.58;2.90;;;;;;;;;;5012377;28;20037;-60
2023/11/02 07:59:04;;;;;;;4.40;3.58;;;;;;;;;;5012978;28;20141;-60
2023/11/02 08:01:30;;;;;;;5.30;3.53;;;;;;;;;;5012309;28;20037;-60
2023/11/02 08:03:56;;;;;;;3.28;3.00;;;;;;;;;;5012508;28;20096;-60
2023/11/02 08:06:21;;;;;;;3.42;2.30;;;;;;;;;;5012688;28;20033;-60
2023/11/02 08:08:46;;;;;;;2.10;1.90;;;;;;;;;;4994313;28;20099;-60
2023/11/02 08:11:12;;;;;;;2.35;1.92;;;;;;;;;;5012659;28;20555;-60
2023/11/02 08:13:37;;;;;;;2.85;1.90;;;;;;;;;;5012899;28;20457;-60
2023/11/02 08:16:03;;;;;;;2.42;1.80;;;;;;;;;;4994981;28;20030;-60
2023/11/02 08:18:28;;;;;;;1.70;1.60;;;;;;;;;;5012330;28;20049;-60
2023/11/02 08:20:54;;;;;;;2.92;1.90;;;;;;;;;;5012507;28;20038;-60
2023/11/02 08:23:19;;;;;;;2.20;2.00;;;;;;;;;;4994994;28;20033;-60
2023/11/02 08:25:48;;;;;;;9.70;5.78;;;;;;;;;;5011619;28;20045;-60
2023/11/02 08:28:14;;;;;;;3.83;3.50;;;;;;;;;;5012080;28;20038;-60
2023/11/02 08:30:40;;;;;;;6.60;5.55;;;;;;;;;;5012113;28;20030;-60
2023/11/02 08:33:05;;;;;;;4.00;2.67;;;;;;;;;;5012118;28;20389;-60
2023/11/02 08:35:31;;;;;;;3.22;2.20;;;;;;;;;;5012897;28;20053;-60
2023/11/02 08:37:56;;;;;;;1.70;1.60;;;;;;;;;;4994160;28;20030;-61
2023/11/02 08:40:22;;;;;;;2.75;1.98;;;;;;;;;;5012324;28;20492;-60
2023/11/02 08:42:48;;;;;;;2.70;1.70;;;;;;;;;;5012953;28;20042;-60
2023/11/02 08:45:14;;;;;;;1.55;1.40;;;;;;;;;;4994352;28;20034;-60
2023/11/02 08:47:40;;;;;;;1.90;1.75;;;;;;;;;;5010318;28;20030;-60
2023/11/02 08:50:06;;;;;;;1.50;1.40;;;;;;;;;;5009609;28;20363;-60
2023/11/02 08:52:32;;;;;;;1.60;1.50;;;;;;;;;;4991884;28;20026;-60
2023/11/02 08:54:59;;;;;;;2.78;1.60;;;;;;;;;;5009164;28;20026;-60
2023/11/02 08:57:25;;;;;;;4.13;1.40;;;;;;;;;;5009140;28;20477;-60
2023/11/02 08:59:50;;;;;;;3.28;1.58;;;;;;;;;;5009666;28;20042;-60
2023/11/02 09:02:15;;;;;;;2.42;1.60;;;;;;;;;;4992293;28;20034;-62
2023/11/02 09:04:40;;;;;;;1.50;1.35;;;;;;;;;;5011178;28;20061;-60
2023/11/02 09:07:06;;;;;;;1.35;1.25;;;;;;;;;;5010615;28;20034;-60
2023/11/02 09:09:31;;;;;;;1.80;1.55;;;;;;;;;;5010724;28;20041;-63
2023/11/02 09:11:56;;;;;;;1.70;1.60;;;;;;;;;;5010890;28;20061;-63
2023/11/02 09:14:22;;;;;;;1.30;1.20;;;;;;;;;;5011110;28;20034;-63
2023/11/02 09:16:49;;;;;;;2.30;1.52;;;;;;;;;;5010988;28;20034;-60
2023/11/02 09:19:15;;;;;;;1.27;1.15;;;;;;;;;;5010758;28;20393;-60
2023/11/02 09:21:42;;;;;;;1.00;0.98;;;;;;;;;;5010659;28;20084;-60
2023/11/02 10:01:00;;;;;;;2.40;1.08;;;;;;;;;;4926023;29;20074;-59
2023/11/02 10:03:25;;;;;;;2.35;1.08;;;;;;;;;;4930557;29;20387;-59
2023/11/02 10:05:53;;;;;;;2.15;1.60;;;;;;;;;;4931863;29;20039;-59
2023/11/02 10:08:21;;;;;;;1.83;1.20;;;;;;;;;;4931380;29;20039;-59
2023/11/02 10:10:48;;;;;;;2.40;0.80;;;;;;;;;;4931701;29;20039;-59
2023/11/02 10:13:13;;;;;;;2.95;2.20;;;;;;;;;;4931705;29;20645;-59
2023/11/02 10:15:38;;;;;;;2.60;1.02;;;;;;;;;;4931895;29;20040;-59
2023/11/02 10:18:12;;;;;;;2.30;2.10;;;;;;;;;;4945915;29;20042;-59
2023/11/02 10:20:38;;;;;;;2.40;1.98;;;;;;;;;;4931692;29;20035;-59
2023/11/02 10:23:05;;;;;;;2.33;1.60;;;;;;;;;;4931617;29;20040;-59
2023/11/02 10:25:31;;;;;;;1.90;1.80;;;;;;;;;;4930237;29;20090;-59
2023/11/02 10:27:57;;;;;;;2.10;1.85;;;;;;;;;;4931871;29;20032;-59
2023/11/02 10:30:22;;;;;;;1.52;1.42;;;;;;;;;;4930046;29;20376;-59
2023/11/02 10:32:50;;;;;;;3.83;1.30;;;;;;;;;;4931790;29;20171;-62
2023/11/02 10:35:15;;;;;;;1.17;1.08;;;;;;;;;;4945554;29;20048;-59
2023/11/02 10:37:41;;;;;;;1.80;0.90;;;;;;;;;;4931969;29;20024;-59
2023/11/02 10:40:07;;;;;;;1.60;1.08;;;;;;;;;;4932146;29;20479;-58
2023/11/02 10:42:32;;;;;;;1.80;1.10;;;;;;;;;;4932387;29;20598;-59
2023/11/02 10:44:58;;;;;;;1.50;0.90;;;;;;;;;;4930965;29;20063;-59
2023/11/02 10:47:30;;;;;;;2.17;1.10;;;;;;;;;;4932031;29;20044;-59
2023/11/02 10:49:59;;;;;;;4.05;1.80;;;;;;;;;;4931991;29;20036;-59
2023/11/02 10:52:45;;;;;;;1.48;1.38;;;;;;;;;;4932147;29;20363;-59
2023/11/02 12:44:00;;;;;;;2.47;0.93;;;;;;;;;;5019671;28;20414;-63
2023/11/02 12:46:42;;;;;;;1.42;0.95;;;;;;;;;;5028288;28;20050;-63
2023/11/02 12:49:19;;;;;;;2.53;1.10;;;;;;;;;;5031156;28;20731;-63
2023/11/02 12:51:53;;;;;;;1.42;0.90;;;;;;;;;;4996961;28;20037;-63
2023/11/02 12:54:19;;;;;;;2.10;0.90;;;;;;;;;;5031056;28;20108;-63
2023/11/02 12:56:45;;;;;;;3.83;0.88;;;;;;;;;;5031298;28;20121;-63
2023/11/02 12:59:11;;;;;;;3.40;0.90;;;;;;;;;;5031192;28;20033;-63
2023/11/02 13:01:43;;;;;;;1.73;0.95;;;;;;;;;;5031150;28;20035;-63
2023/11/02 13:04:08;;;;;;;4.32;0.90;;;;;;;;;;5030461;28;20408;-63
2023/11/02 13:06:35;;;;;;;4.43;1.42;;;;;;;;;;5013239;28;20030;-61
2023/11/02 13:09:17;;;;;;;1.65;1.10;;;;;;;;;;5031161;28;20120;-63
2023/11/02 13:11:45;;;;;;;1.40;1.30;;;;;;;;;;5031816;28;20500;-63
2023/11/02 13:14:17;;;;;;;5.57;4.38;;;;;;;;;;5013506;28;20030;-63
2023/11/02 13:16:43;;;;;;;1.35;1.17;;;;;;;;;;5030334;28;20508;-63
2023/11/02 13:19:08;;;;;;;2.35;1.10;;;;;;;;;;5030836;28;20037;-63
2023/11/02 13:21:34;;;;;;;1.95;1.70;;;;;;;;;;5030764;28;20084;-63
2023/11/02 13:24:00;;;;;;;0.75;0.60;;;;;;;;;;5031223;28;20124;-63
2023/11/02 13:26:26;;;;;;;1.73;1.23;;;;;;;;;;5031061;28;20032;-63
2023/11/02 13:28:51;;;;;;;1.20;1.10;;;;;;;;;;5013238;28;20033;-63
2023/11/02 13:31:18;;;;;;;0.82;0.82;;;;;;;;;;5031015;28;20033;-63
2023/11/02 13:33:44;;;;;;;1.85;0.60;;;;;;;;;;5031234;28;20461;-63
2023/11/02 13:36:10;;;;;;;1.55;0.90;;;;;;;;;;5031959;28;20076;-63
2023/11/02 13:38:40;;;;;;;2.17;0.80;;;;;;;;;;5014023;28;20385;-63
2023/11/02 13:41:06;;;;;;;0.90;0.70;;;;;;;;;;5031517;28;20029;-63
2023/11/02 13:43:32;;;;;;;1.70;0.88;;;;;;;;;;5031223;28;20052;-63
2023/11/02 13:45:58;;;;;;;1.58;0.80;;;;;;;;;;5030626;28;20049;-63
2023/11/02 13:48:23;;;;;;;1.23;0.80;;;;;;;;;;5030504;28;20413;-63
2023/11/02 13:50:50;;;;;;;0.95;0.88;;;;;;;;;;5030839;28;20025;-63
2023/11/02 13:53:15;;;;;;;1.25;0.75;;;;;;;;;;5030963;28;20534;-64
2023/11/02 13:55:41;;;;;;;1.15;0.77;;;;;;;;;;5031041;28;20029;-64
2023/11/02 13:58:07;;;;;;;1.38;0.65;;;;;;;;;;5012566;28;20030;-63
2023/11/02 14:00:33;;;;;;;3.13;0.65;;;;;;;;;;4995804;28;20484;-63
2023/11/02 14:02:59;;;;;;;0.70;0.68;;;;;;;;;;5027856;28;20449;-63
2023/11/02 14:05:24;;;;;;;3.55;1.35;;;;;;;;;;5027776;28;20028;-63
2023/11/02 14:07:50;;;;;;;1.05;0.82;;;;;;;;;;5010186;28;20604;-63
2023/11/02 14:10:16;;;;;;;1.58;1.40;;;;;;;;;;5029114;28;20030;-63
2023/11/02 14:12:42;;;;;;;1.55;1.20;;;;;;;;;;5028658;28;20044;-63
2023/11/02 14:15:07;;;;;;;0.80;0.80;;;;;;;;;;5010474;28;20477;-63
2023/11/02 14:17:34;;;;;;;3.53;0.85;;;;;;;;;;4993888;28;20045;-64
2023/11/02 14:20:00;;;;;;;1.17;0.90;;;;;;;;;;5027928;28;20037;-63
2023/11/02 14:22:26;;;;;;;1.65;0.90;;;;;;;;;;5011419;28;20540;-64
2023/11/02 14:24:55;;;;;;;0.90;0.90;;;;;;;;;;5011762;28;20029;-63
2023/11/02 14:27:24;;;;;;;1.25;0.70;;;;;;;;;;5029562;28;20065;-63
2023/11/02 14:29:50;;;;;;;1.00;0.90;;;;;;;;;;5029673;28;20034;-63
2023/11/02 14:32:16;;;;;;;2.10;1.13;;;;;;;;;;5014792;28;20044;-63
2023/11/02 14:34:42;;;;;;;1.50;1.02;;;;;;;;;;5033748;28;20029;-63
2023/11/02 14:37:07;;;;;;;1.35;0.85;;;;;;;;;;5016417;28;20370;-63
2023/11/02 14:39:34;;;;;;;1.67;1.20;;;;;;;;;;5035240;28;20230;-63
2023/11/02 14:41:59;;;;;;;1.60;0.90;;;;;;;;;;5016950;28;20740;-63
2023/11/02 14:44:25;;;;;;;1.42;0.93;;;;;;;;;;5034470;28;20040;-63
2023/11/02 14:46:50;;;;;;;0.70;0.70;;;;;;;;;;5033006;28;20804;-63
2023/11/02 14:49:16;;;;;;;1.73;0.93;;;;;;;;;;5032905;28;20120;-63
2023/11/02 14:51:41;;;;;;;1.52;0.82;;;;;;;;;;5033601;28;20026;-63
2023/11/02 14:54:07;;;;;;;2.30;1.08;;;;;;;;;;5032971;28;20034;-63
2023/11/02 14:56:35;;;;;;;3.33;1.42;;;;;;;;;;5033512;28;20032;-63
2023/11/02 14:59:03;;;;;;;1.30;1.20;;;;;;;;;;5015383;28;20044;-63
2023/11/02 15:01:30;;;;;;;0.90;0.90;;;;;;;;;;5033681;28;20030;-60
2023/11/02 15:03:56;;;;;;;1.40;1.08;;;;;;;;;;5016677;28;20022;-63
2023/11/02 15:06:21;;;;;;;1.23;1.00;;;;;;;;;;5034020;28;20041;-63
2023/11/02 15:08:48;;;;;;;2.28;0.90;;;;;;;;;;5033079;28;20087;-63
2023/11/02 15:11:21;;;;;;;3.60;0.98;;;;;;;;;;5032925;28;20034;-60
2023/11/02 15:13:46;;;;;;;1.35;1.25;;;;;;;;;;5033567;28;20030;-60
2023/11/02 15:16:12;;;;;;;3.55;2.45;;;;;;;;;;5033680;28;20496;-60
2023/11/02 15:18:37;;;;;;;5.70;4.25;;;;;;;;;;5032871;28;20582;-63
2023/11/02 15:21:06;;;;;;;5.85;4.03;;;;;;;;;;5033584;28;20037;-63
2023/11/02 15:23:32;;;;;;;5.95;5.28;;;;;;;;;;4999306;28;20136;-63
2023/11/02 15:25:57;;;;;;;3.70;2.63;;;;;;;;;;5014699;28;20473;-63
2023/11/02 15:28:22;;;;;;;3.75;2.15;;;;;;;;;;5032534;28;20420;-63
2023/11/02 15:30:48;;;;;;;5.07;3.55;;;;;;;;;;5014829;28;20052;-63
2023/11/02 15:33:13;;;;;;;5.25;3.33;;;;;;;;;;5032807;28;20395;-63
2023/11/02 15:35:38;;;;;;;4.60;2.88;;;;;;;;;;5032563;28;20029;-63
2023/11/02 15:38:05;;;;;;;3.72;2.38;;;;;;;;;;5032261;28;20037;-63
2023/11/02 15:40:30;;;;;;;5.10;3.10;;;;;;;;;;5032316;28;20045;-66
2023/11/02 15:42:56;;;;;;;6.43;4.93;;;;;;;;;;5032048;28;20029;-66
2023/11/02 15:45:21;;;;;;;6.05;3.70;;;;;;;;;;5032175;28;20509;-66
2023/11/02 15:47:46;;;;;;;4.68;2.47;;;;;;;;;;5013689;28;20037;-66
2023/11/02 15:50:12;;;;;;;4.97;3.17;;;;;;;;;;5031906;28;20040;-71
2023/11/02 15:52:43;;;;;;;3.95;2.78;;;;;;;;;;5032975;28;20084;-69
2023/11/02 15:55:09;;;;;;;4.80;2.67;;;;;;;;;;5033014;28;20037;-69
2023/11/02 15:57:35;;;;;;;2.15;1.98;;;;;;;;;;5032955;28;20105;-69
2023/11/02 16:00:00;;;;;;;4.43;2.10;;;;;;;;;;5014614;28;20125;-69
2023/11/02 16:02:25;;;;;;;4.60;3.00;;;;;;;;;;5014593;28;20849;-69
2023/11/02 16:04:51;;;;;;;3.20;2.25;;;;;;;;;;5032108;28;20110;-69
2023/11/02 16:07:16;;;;;;;2.60;2.40;;;;;;;;;;5032098;28;20033;-68
2023/11/02 16:09:42;;;;;;;3.92;2.15;;;;;;;;;;5032000;28;20454;-69
2023/11/02 16:12:08;;;;;;;5.80;3.20;;;;;;;;;;5032474;28;20418;-68
2023/11/02 16:14:34;;;;;;;4.20;3.60;;;;;;;;;;5032032;28;20034;-68
2023/11/02 16:16:59;;;;;;;8.60;5.00;;;;;;;;;;5032185;28;20038;-69
2023/11/02 16:19:28;;;;;;;5.55;3.60;;;;;;;;;;5032068;28;20397;-69
2023/11/02 16:21:55;;;;;;;31.73;15.48;;;;;;;;;;5031482;28;20026;-69
2023/11/02 16:24:21;;;;;;;24.25;10.32;;;;;;;;;;5012929;28;20049;-69
2023/11/02 16:26:46;;;;;;;11.48;6.18;;;;;;;;;;5031023;28;20037;-69
2023/11/02 16:29:12;;;;;;;6.72;4.22;;;;;;;;;;5030345;28;20103;-69
2023/11/02 16:31:38;;;;;;;19.42;10.57;;;;;;;;;;5029572;28;20363;-68
2023/11/02 16:34:05;;;;;;;9.05;4.55;;;;;;;;;;5012146;28;20068;-69
2023/11/02 16:36:46;;;;;;;4.47;3.30;;;;;;;;;;5031219;28;20060;-68
2023/11/02 16:39:12;;;;;;;5.78;3.92;;;;;;;;;;5031326;28;20040;-69
2023/11/02 16:41:42;;;;;;;12.45;5.80;;;;;;;;;;5030930;28;20393;-69
2023/11/02 16:44:07;;;;;;;10.52;4.75;;;;;;;;;;5031108;28;20041;-69
2023/11/02 16:46:32;;;;;;;24.52;12.85;;;;;;;;;;5011556;28;20049;-69
2023/11/02 16:48:58;;;;;;;6.32;4.85;;;;;;;;;;5030703;28;20036;-69
2023/11/02 16:51:23;;;;;;;19.05;7.93;;;;;;;;;;5030600;28;20040;-69
2023/11/02 16:53:49;;;;;;;14.30;7.57;;;;;;;;;;5030245;28;20021;-69
2023/11/02 16:56:14;;;;;;;20.13;9.88;;;;;;;;;;5012923;28;20038;-69
2023/11/02 16:58:40;;;;;;;10.90;5.10;;;;;;;;;;5029489;28;20060;-69
2023/11/02 17:01:05;;;;;;;11.32;5.22;;;;;;;;;;5028817;28;20416;-69
2023/11/02 17:03:31;;;;;;;5.88;3.85;;;;;;;;;;5029110;28;20045;-69
2023/11/02 17:05:56;;;;;;;15.68;9.05;;;;;;;;;;5028610;28;20112;-70
2023/11/02 17:08:22;;;;;;;6.93;4.28;;;;;;;;;;5028456;28;20041;-70
2023/11/02 17:10:47;;;;;;;7.63;3.80;;;;;;;;;;5028342;28;20128;-71